Iacri, Brazil
Current Conditions -  °F | °C
As of 6:00 PM on Monday 22 Dec 2014 (Local Time) from SBDN Reporting Station
Light Rain Light Rain  
Wind Chill: 73°   Ceiling: 4000
Heat Index: 73°   Visibility: 6mi
Dew Point: 70°   Wind: 7mph
Humidity: 88%   Direction: 240°WSW
Pressure: 29.85"   Gusts: NA
Location:  21.86°S, 50.69°W
Report Text: SBDN 222000Z 24006KT 9999 -RA SCT010 OVC040 23/21 Q1011 RETS
Loading
Personal Weather Stations






























Interactive Weather Map New forecast layout! Learn more

10-Day Weather Forecast

Advertisements
Track Severe Weather on mobile